Terminal Aerodrome Forecast
Issued by NWS Grand Rapids, MI

Home | Current Version | Previous Version | Text Only | Print | Product List | Glossary On
Versions: 1 2 3 4 5 6 7 8 9 10 11 12 13 14 15 16 17 18 19 20 21
000
FTUS43 KGRR 211700
TAFGRR
TAF
KGRR 211740Z 2118/2218 20007KT P6SM SCT025
      TEMPO 2118/2120 BKN025
     FM220900 20012KT 5SM FZRA BR OVC025
     FM221300 21015KT 2SM -DZ BR OVC009=

USA.gov is the U.S. government's official web portal to all federal, state and local government web resources and services.